createdAt,value
2022-07-26T00:00:12.734Z,18.50
2022-07-26T00:02:47.329Z,18.50
2022-07-26T00:05:16.352Z,18.60
2022-07-26T00:07:43.495Z,18.60
2022-07-26T00:10:10.572Z,18.60
2022-07-26T00:12:37.804Z,18.70
2022-07-26T00:15:07.828Z,18.60
2022-07-26T00:17:34.537Z,18.60
2022-07-26T00:20:01.129Z,18.70
2022-07-26T00:22:34.511Z,18.70
2022-07-26T00:25:03.737Z,18.80
2022-07-26T00:27:30.334Z,18.80
2022-07-26T00:29:56.968Z,19.00
2022-07-26T00:32:23.738Z,19.00
2022-07-26T00:34:51.865Z,19.00
2022-07-26T00:37:20.520Z,19.00
2022-07-26T00:39:47.729Z,19.00
2022-07-26T00:42:14.295Z,18.90
2022-07-26T00:44:42.885Z,18.80
2022-07-26T00:47:10.178Z,18.70
2022-07-26T00:49:37.152Z,18.70
2022-07-26T00:52:05.944Z,18.60
2022-07-26T00:54:33.219Z,18.50
2022-07-26T00:57:00.070Z,18.50
2022-07-26T00:59:26.745Z,18.50
2022-07-26T01:01:53.967Z,18.40
2022-07-26T01:04:20.786Z,18.30
2022-07-26T01:06:48.846Z,18.20
2022-07-26T01:09:16.602Z,18.20
2022-07-26T01:11:43.436Z,18.20
2022-07-26T01:14:10.560Z,18.20
2022-07-26T01:16:37.674Z,18.20
2022-07-26T01:19:04.541Z,18.20
2022-07-26T01:21:32.029Z,18.20
2022-07-26T01:23:58.717Z,18.20
2022-07-26T01:26:25.878Z,18.20
2022-07-26T01:28:52.779Z,18.10
2022-07-26T01:31:19.692Z,18.10
2022-07-26T01:33:46.423Z,17.90
2022-07-26T01:36:13.272Z,17.90
2022-07-26T01:38:41.183Z,18.00
2022-07-26T01:41:08.700Z,18.00
2022-07-26T01:43:36.548Z,17.90
2022-07-26T01:46:05.109Z,17.90
2022-07-26T01:48:32.058Z,17.90
2022-07-26T01:50:59.099Z,17.90
2022-07-26T01:53:25.713Z,17.90
2022-07-26T01:55:52.664Z,18.00
2022-07-26T01:58:19.669Z,17.90
2022-07-26T02:00:46.356Z,17.90
2022-07-26T02:03:13.026Z,18.00
2022-07-26T02:05:39.657Z,18.00
2022-07-26T02:08:06.557Z,18.00
2022-07-26T02:10:52.323Z,17.90
2022-07-26T02:13:19.179Z,17.90
2022-07-26T02:15:45.939Z,17.80
2022-07-26T02:18:12.985Z,17.80
2022-07-26T02:20:39.724Z,17.90
2022-07-26T02:23:06.574Z,17.90
2022-07-26T02:25:33.265Z,17.80
2022-07-26T02:28:01.159Z,17.80
2022-07-26T02:30:28.107Z,17.90
2022-07-26T02:32:54.823Z,17.90
2022-07-26T02:35:21.452Z,17.80
2022-07-26T02:37:48.125Z,17.80
2022-07-26T02:40:19.056Z,17.80
2022-07-26T02:42:45.816Z,17.80
2022-07-26T02:45:12.503Z,17.80
2022-07-26T02:47:46.644Z,17.80
2022-07-26T02:50:15.813Z,17.80
2022-07-26T02:52:42.448Z,17.90
2022-07-26T02:55:09.925Z,17.90
2022-07-26T02:57:45.499Z,17.80
2022-07-26T03:00:16.238Z,17.70
2022-07-26T03:02:43.423Z,17.70
2022-07-26T03:05:10.996Z,17.70
2022-07-26T03:07:37.853Z,17.70
2022-07-26T03:10:05.132Z,17.80
2022-07-26T03:12:31.755Z,17.80
2022-07-26T03:14:58.408Z,17.70
2022-07-26T03:17:25.056Z,17.70
2022-07-26T03:19:51.694Z,17.70
2022-07-26T03:22:18.335Z,17.70
2022-07-26T03:24:44.936Z,17.70
2022-07-26T03:27:11.581Z,17.60
2022-07-26T03:29:38.222Z,17.70
2022-07-26T03:32:05.138Z,17.70
2022-07-26T03:34:31.934Z,17.70
2022-07-26T03:36:58.515Z,17.70
2022-07-26T03:39:25.528Z,17.80
2022-07-26T03:41:52.178Z,17.70
2022-07-26T03:44:18.833Z,17.70
2022-07-26T03:46:45.430Z,17.70
2022-07-26T03:49:16.435Z,17.70
2022-07-26T03:51:43.846Z,17.80
2022-07-26T03:54:10.897Z,17.80
2022-07-26T03:56:38.167Z,17.70
2022-07-26T03:59:07.407Z,17.50
2022-07-26T04:01:35.170Z,17.50
2022-07-26T04:04:02.959Z,17.50
2022-07-26T04:06:29.566Z,17.60
2022-07-26T04:08:56.817Z,17.50
2022-07-26T04:11:26.373Z,17.40
2022-07-26T04:13:55.371Z,17.30
2022-07-26T04:16:22.197Z,17.10
2022-07-26T04:18:51.294Z,17.00
2022-07-26T04:21:18.318Z,17.00
2022-07-26T04:23:50.760Z,17.00
2022-07-26T04:26:17.991Z,17.10
2022-07-26T04:28:44.603Z,17.10
2022-07-26T04:31:11.385Z,17.10
2022-07-26T04:33:38.077Z,17.00
2022-07-26T04:36:05.168Z,16.80
2022-07-26T04:38:31.884Z,16.80
2022-07-26T04:40:58.529Z,16.70
2022-07-26T04:43:25.527Z,16.80
2022-07-26T04:45:52.736Z,16.80
2022-07-26T04:48:19.475Z,16.90
2022-07-26T04:50:46.304Z,16.70
2022-07-26T04:53:13.026Z,16.80
2022-07-26T04:55:40.476Z,16.90
2022-07-26T04:58:07.948Z,16.90
2022-07-26T05:00:51.095Z,16.90
2022-07-26T05:03:24.872Z,17.00
2022-07-26T05:05:51.520Z,17.10
2022-07-26T05:08:18.159Z,17.10
2022-07-26T05:10:45.214Z,17.20
2022-07-26T05:13:12.002Z,17.20
2022-07-26T05:15:38.768Z,17.10
2022-07-26T05:18:10.684Z,17.10
2022-07-26T05:20:40.723Z,17.20
2022-07-26T05:23:07.961Z,17.20
2022-07-26T05:25:34.998Z,17.20
2022-07-26T05:28:01.800Z,17.10
2022-07-26T05:30:28.672Z,17.10
2022-07-26T05:32:55.472Z,17.20
2022-07-26T05:35:37.213Z,17.20
2022-07-26T05:38:04.090Z,17.40
2022-07-26T05:40:30.756Z,17.40
2022-07-26T05:42:57.442Z,17.50
2022-07-26T05:48:15.022Z,17.50
2022-07-26T05:50:41.694Z,17.50
2022-07-26T05:53:08.270Z,17.50
2022-07-26T05:55:35.460Z,17.50
2022-07-26T05:58:02.078Z,17.60
2022-07-26T06:00:29.088Z,17.60
2022-07-26T06:02:55.720Z,17.60
2022-07-26T06:05:22.485Z,17.60
2022-07-26T06:07:49.045Z,17.70
2022-07-26T06:10:15.704Z,17.70
2022-07-26T06:12:42.375Z,17.80
2022-07-26T06:15:15.240Z,17.80
2022-07-26T06:17:42.467Z,17.80
2022-07-26T06:20:09.783Z,17.80
2022-07-26T06:22:36.486Z,17.80
2022-07-26T06:25:03.364Z,17.80
2022-07-26T06:27:32.140Z,17.80
2022-07-26T06:29:58.732Z,17.90
2022-07-26T06:32:25.288Z,18.00
2022-07-26T06:34:51.835Z,17.80
2022-07-26T06:37:18.465Z,17.70
2022-07-26T06:39:45.069Z,17.70
2022-07-26T06:42:11.644Z,17.70
2022-07-26T06:44:38.309Z,17.70
2022-07-26T06:47:05.032Z,17.50
2022-07-26T06:49:33.526Z,17.30
2022-07-26T06:52:00.224Z,17.10
2022-07-26T06:54:26.914Z,17.20
2022-07-26T06:56:53.699Z,17.20
2022-07-26T06:59:20.513Z,17.10
2022-07-26T07:01:55.303Z,17.00
2022-07-26T07:04:28.674Z,16.90
2022-07-26T07:06:55.318Z,17.00
2022-07-26T07:09:24.234Z,17.00
2022-07-26T07:11:53.715Z,17.10
2022-07-26T07:14:25.346Z,17.30
2022-07-26T07:16:51.962Z,17.30
2022-07-26T07:19:18.609Z,17.40
2022-07-26T07:21:45.220Z,17.30
2022-07-26T07:24:12.198Z,17.30
2022-07-26T07:26:41.096Z,17.20
2022-07-26T07:29:10.096Z,17.20
2022-07-26T07:31:48.843Z,17.20
2022-07-26T07:34:19.511Z,17.10
2022-07-26T07:36:47.322Z,17.20
2022-07-26T07:39:17.542Z,17.10
2022-07-26T07:41:45.679Z,17.10
2022-07-26T07:44:12.349Z,17.00
2022-07-26T07:46:39.327Z,17.00
2022-07-26T07:49:07.095Z,17.20
2022-07-26T07:51:34.031Z,17.30
2022-07-26T07:54:05.608Z,17.30
2022-07-26T07:56:33.044Z,17.30
2022-07-26T07:58:59.766Z,17.50
2022-07-26T08:01:40.217Z,17.60
2022-07-26T08:04:07.928Z,17.80
2022-07-26T08:06:34.659Z,17.90
2022-07-26T08:09:01.454Z,17.80
2022-07-26T08:11:30.744Z,17.90
2022-07-26T08:14:00.562Z,17.80
2022-07-26T08:16:27.284Z,17.70
2022-07-26T08:18:58.026Z,17.50
2022-07-26T08:21:29.259Z,17.10
2022-07-26T08:23:56.834Z,17.10
2022-07-26T08:26:23.927Z,17.00
2022-07-26T08:28:59.404Z,17.10
2022-07-26T08:31:29.822Z,17.10
2022-07-26T08:33:56.773Z,17.00
2022-07-26T08:36:23.762Z,17.30
2022-07-26T08:38:50.479Z,17.50
2022-07-26T08:41:18.223Z,17.50
2022-07-26T08:43:51.716Z,17.80
2022-07-26T08:46:26.443Z,17.80
2022-07-26T08:48:55.067Z,17.80
2022-07-26T08:51:24.042Z,17.80
2022-07-26T08:53:54.069Z,17.90
2022-07-26T08:56:20.775Z,17.50
2022-07-26T08:58:47.383Z,17.40
2022-07-26T09:01:14.811Z,17.40
2022-07-26T09:03:43.197Z,17.40
2022-07-26T09:06:18.343Z,17.40
2022-07-26T09:08:46.881Z,17.50
2022-07-26T09:11:29.305Z,17.60
2022-07-26T09:13:59.518Z,17.70
2022-07-26T09:16:27.164Z,17.80
2022-07-26T09:18:54.278Z,17.90
2022-07-26T09:21:47.413Z,18.00
2022-07-26T09:24:29.498Z,18.00
2022-07-26T09:26:58.294Z,17.90
2022-07-26T09:29:25.417Z,18.10
2022-07-26T09:31:52.055Z,18.20
2022-07-26T09:34:25.881Z,18.10
2022-07-26T09:36:54.270Z,18.30
2022-07-26T09:39:22.738Z,18.10
2022-07-26T09:42:26.904Z,18.10
2022-07-26T09:44:55.851Z,18.00
2022-07-26T09:47:23.388Z,18.20
2022-07-26T09:49:50.080Z,18.40
2022-07-26T09:52:21.388Z,18.30
2022-07-26T09:54:49.732Z,18.30
2022-07-26T09:57:20.619Z,18.20
2022-07-26T09:59:47.764Z,18.10
2022-07-26T10:02:14.705Z,18.00
2022-07-26T10:04:42.437Z,18.00
2022-07-26T10:07:10.579Z,18.10
2022-07-26T10:09:53.113Z,18.30
2022-07-26T10:12:30.435Z,18.60
2022-07-26T10:14:57.349Z,18.70
2022-07-26T10:17:40.918Z,18.70
2022-07-26T10:20:16.983Z,18.70
2022-07-26T10:22:46.581Z,18.70
2022-07-26T10:25:19.499Z,18.80
2022-07-26T10:27:49.621Z,19.00
2022-07-26T10:30:16.195Z,18.80
2022-07-26T10:33:06.262Z,18.80
2022-07-26T10:35:44.855Z,18.80
2022-07-26T10:38:18.036Z,18.70
2022-07-26T10:40:58.568Z,18.90
2022-07-26T10:43:43.053Z,18.90
2022-07-26T10:46:15.800Z,19.00
2022-07-26T10:49:09.049Z,19.20
2022-07-26T10:51:38.005Z,19.10
2022-07-26T10:54:10.448Z,19.40
2022-07-26T10:56:38.166Z,19.50
2022-07-26T10:59:05.944Z,19.70
2022-07-26T11:01:40.887Z,19.40
2022-07-26T11:04:21.113Z,19.00
2022-07-26T11:06:48.362Z,19.00
2022-07-26T11:09:15.925Z,18.90
2022-07-26T11:11:46.561Z,18.90
2022-07-26T11:14:16.126Z,18.90
2022-07-26T11:16:48.147Z,18.90
2022-07-26T11:19:18.733Z,19.10
2022-07-26T11:21:46.983Z,19.40
2022-07-26T11:24:14.083Z,19.50
2022-07-26T11:26:46.379Z,19.20
2022-07-26T11:29:16.850Z,19.10
2022-07-26T11:31:51.576Z,19.10
2022-07-26T11:34:30.364Z,19.30
2022-07-26T11:36:58.812Z,19.10
2022-07-26T11:39:27.551Z,19.10
2022-07-26T11:42:09.003Z,19.00
2022-07-26T11:44:36.202Z,19.00
2022-07-26T11:47:19.602Z,19.20
2022-07-26T11:50:01.153Z,19.40
2022-07-26T11:52:34.066Z,19.40
2022-07-26T11:55:00.680Z,19.30
2022-07-26T11:57:32.184Z,19.40
2022-07-26T12:00:00.394Z,19.40
2022-07-26T12:02:28.776Z,19.30
2022-07-26T12:05:18.185Z,19.30
2022-07-26T12:07:59.387Z,19.50
2022-07-26T12:10:27.299Z,19.50
2022-07-26T12:13:07.444Z,19.60
2022-07-26T12:15:51.740Z,19.70
2022-07-26T12:18:23.548Z,19.80
2022-07-26T12:21:08.927Z,19.90
2022-07-26T12:23:48.307Z,19.90
2022-07-26T12:26:26.145Z,19.70
2022-07-26T12:28:54.428Z,19.40
2022-07-26T12:31:29.896Z,19.60
2022-07-26T12:33:57.811Z,19.80
2022-07-26T12:36:26.899Z,19.70
2022-07-26T12:38:54.008Z,19.70
2022-07-26T12:41:38.260Z,19.80
2022-07-26T12:44:06.506Z,20.00
2022-07-26T12:46:38.460Z,20.00
2022-07-26T12:49:05.677Z,20.00
2022-07-26T12:51:32.735Z,20.00
2022-07-26T12:53:59.358Z,19.70
2022-07-26T12:56:25.953Z,19.50
2022-07-26T12:58:53.953Z,19.70
2022-07-26T13:01:20.757Z,19.70
2022-07-26T13:03:47.446Z,19.60
2022-07-26T13:06:14.032Z,19.50
2022-07-26T13:08:40.630Z,19.40
2022-07-26T13:11:07.269Z,19.60
2022-07-26T13:13:33.893Z,19.80
2022-07-26T13:16:00.513Z,20.00
2022-07-26T13:18:27.121Z,20.20
2022-07-26T13:20:53.802Z,20.00
2022-07-26T13:23:21.931Z,20.00
2022-07-26T13:25:52.012Z,19.80
2022-07-26T13:28:19.588Z,19.70
2022-07-26T13:30:46.275Z,19.80
2022-07-26T13:33:12.935Z,19.90
2022-07-26T13:35:41.265Z,20.20
2022-07-26T13:38:08.303Z,19.90
2022-07-26T13:40:37.092Z,19.50
2022-07-26T13:43:04.420Z,19.40
2022-07-26T13:45:31.049Z,19.40
2022-07-26T13:47:59.183Z,19.10
2022-07-26T13:50:27.248Z,19.10
2022-07-26T13:52:56.030Z,19.30
2022-07-26T13:55:28.115Z,19.60
2022-07-26T13:57:57.145Z,19.70
2022-07-26T14:00:28.899Z,20.10
2022-07-26T14:02:58.051Z,20.00
2022-07-26T14:05:25.431Z,20.20
2022-07-26T14:07:52.134Z,20.00
2022-07-26T14:10:19.527Z,19.50
2022-07-26T14:12:46.554Z,19.20
2022-07-26T14:15:19.512Z,19.10
2022-07-26T14:17:48.588Z,19.00
2022-07-26T14:20:16.853Z,19.10
2022-07-26T14:22:43.500Z,19.10
2022-07-26T14:25:10.401Z,18.90
2022-07-26T14:27:37.019Z,19.00
2022-07-26T14:30:04.889Z,19.20
2022-07-26T14:32:31.584Z,19.30
2022-07-26T14:34:58.173Z,19.50
2022-07-26T14:37:44.402Z,19.80
2022-07-26T14:40:15.283Z,20.10
2022-07-26T14:42:43.870Z,20.50
2022-07-26T14:45:11.612Z,20.20
2022-07-26T14:47:38.540Z,19.90
2022-07-26T14:50:07.924Z,19.80
2022-07-26T14:52:44.885Z,19.60
2022-07-26T14:55:11.988Z,19.60
2022-07-26T14:57:40.262Z,19.60
2022-07-26T15:00:13.165Z,19.70
2022-07-26T15:02:45.347Z,19.80
2022-07-26T15:05:13.219Z,19.80
2022-07-26T15:07:40.960Z,19.40
2022-07-26T15:10:10.453Z,19.20
2022-07-26T15:12:37.659Z,19.30
2022-07-26T15:15:05.979Z,19.30
2022-07-26T15:17:32.642Z,19.50
2022-07-26T15:19:59.251Z,19.70
2022-07-26T15:22:26.479Z,20.00
2022-07-26T15:24:53.115Z,20.10
2022-07-26T15:27:19.697Z,20.00
2022-07-26T15:29:48.511Z,19.80
2022-07-26T15:32:15.187Z,19.30
2022-07-26T15:34:41.821Z,18.90
2022-07-26T15:37:09.435Z,18.90
2022-07-26T15:39:37.129Z,19.20
2022-07-26T15:42:07.641Z,19.50
2022-07-26T15:44:37.711Z,19.60
2022-07-26T15:47:04.632Z,19.70
2022-07-26T15:49:31.273Z,19.70
2022-07-26T15:51:58.102Z,19.40
2022-07-26T15:54:24.825Z,19.20
2022-07-26T15:56:51.437Z,19.50
2022-07-26T15:59:18.073Z,19.40
2022-07-26T16:01:44.778Z,19.50
2022-07-26T16:04:12.144Z,19.70
2022-07-26T16:06:39.095Z,19.50
2022-07-26T16:09:17.364Z,19.20
2022-07-26T16:11:45.484Z,18.90
2022-07-26T16:14:12.149Z,18.80
2022-07-26T16:16:38.808Z,18.50
2022-07-26T16:19:05.507Z,18.40
2022-07-26T16:21:32.411Z,18.40
2022-07-26T16:24:06.149Z,18.40
2022-07-26T16:26:33.677Z,18.30
2022-07-26T16:29:00.661Z,18.30
2022-07-26T16:31:27.679Z,18.40
2022-07-26T16:33:54.364Z,18.60
2022-07-26T16:36:20.993Z,18.60
2022-07-26T16:38:47.606Z,18.50
2022-07-26T16:41:14.416Z,18.20
2022-07-26T16:43:41.377Z,18.30
2022-07-26T16:46:07.949Z,18.50
2022-07-26T16:48:34.624Z,18.70
2022-07-26T16:51:01.433Z,19.00
2022-07-26T16:53:28.055Z,19.50
2022-07-26T16:55:54.691Z,19.60
2022-07-26T16:58:22.603Z,20.00
2022-07-26T17:00:49.604Z,20.00
2022-07-26T17:03:16.676Z,20.40
2022-07-26T17:05:44.463Z,20.50
2022-07-26T17:08:11.221Z,20.60
2022-07-26T17:10:38.272Z,20.30
2022-07-26T17:13:04.929Z,20.30
2022-07-26T17:15:31.629Z,20.50
2022-07-26T17:17:58.272Z,20.50
2022-07-26T17:20:25.516Z,20.00
2022-07-26T17:22:52.245Z,19.60
2022-07-26T17:25:18.886Z,19.70
2022-07-26T17:27:45.542Z,20.20
2022-07-26T17:30:12.510Z,20.30
2022-07-26T17:32:39.429Z,20.70
2022-07-26T17:35:06.586Z,21.10
2022-07-26T17:37:34.886Z,21.00
2022-07-26T17:40:02.011Z,20.80
2022-07-26T17:42:30.348Z,20.40
2022-07-26T17:44:57.176Z,19.70
2022-07-26T17:47:29.488Z,19.50
2022-07-26T17:50:08.987Z,19.40
2022-07-26T17:52:45.412Z,19.10
2022-07-26T17:55:11.984Z,18.90
2022-07-26T17:57:38.765Z,18.90
2022-07-26T18:00:07.048Z,19.00
2022-07-26T18:02:33.848Z,18.80
2022-07-26T18:05:00.502Z,18.50
2022-07-26T18:07:27.204Z,18.30
2022-07-26T18:09:53.950Z,18.50
2022-07-26T18:12:20.591Z,18.20
2022-07-26T18:14:47.194Z,18.00
2022-07-26T18:17:13.865Z,18.00
2022-07-26T18:19:40.472Z,18.10
2022-07-26T18:22:07.088Z,17.90
2022-07-26T18:24:33.733Z,18.00
2022-07-26T18:27:00.355Z,18.10
2022-07-26T18:29:27.298Z,18.20
2022-07-26T18:31:54.122Z,17.80
2022-07-26T18:34:20.796Z,17.50
2022-07-26T18:36:47.428Z,17.70
2022-07-26T18:39:14.432Z,17.90
2022-07-26T18:41:41.161Z,17.70
2022-07-26T18:44:07.738Z,17.60
2022-07-26T18:46:34.511Z,17.60
2022-07-26T18:49:01.381Z,17.60
2022-07-26T18:51:29.139Z,17.50
2022-07-26T18:53:57.295Z,17.40
2022-07-26T18:56:23.936Z,17.40
2022-07-26T18:58:50.645Z,17.40
2022-07-26T19:01:17.381Z,17.50
2022-07-26T19:03:44.171Z,17.50
2022-07-26T19:06:11.769Z,17.40
2022-07-26T19:08:38.483Z,17.30
2022-07-26T19:11:05.210Z,17.30
2022-07-26T19:13:33.138Z,17.30
2022-07-26T19:15:59.862Z,17.40
2022-07-26T19:18:26.773Z,17.50
2022-07-26T19:20:53.368Z,17.30
2022-07-26T19:23:21.305Z,17.30
2022-07-26T19:25:47.908Z,17.20
2022-07-26T19:28:14.503Z,17.20
2022-07-26T19:30:41.335Z,17.30
2022-07-26T19:33:07.929Z,17.40
2022-07-26T19:35:34.678Z,17.30
2022-07-26T19:38:01.297Z,17.30
2022-07-26T19:40:28.341Z,17.40
2022-07-26T19:42:55.025Z,17.40
2022-07-26T19:48:12.723Z,17.50
2022-07-26T19:50:40.918Z,17.40
2022-07-26T19:53:07.549Z,17.40
2022-07-26T19:55:34.180Z,17.20
2022-07-26T19:58:00.748Z,17.00
2022-07-26T20:00:28.253Z,16.60
2022-07-26T20:02:55.921Z,16.20
2022-07-26T20:05:22.590Z,16.20
2022-07-26T20:07:50.998Z,16.30
2022-07-26T20:10:17.707Z,16.20
2022-07-26T20:12:44.747Z,16.20
2022-07-26T20:15:12.896Z,16.20
2022-07-26T20:17:41.214Z,16.40
2022-07-26T20:20:10.298Z,16.30
2022-07-26T20:22:36.955Z,16.30
2022-07-26T20:25:03.912Z,16.40
2022-07-26T20:27:30.512Z,16.40
2022-07-26T20:30:00.898Z,16.40
2022-07-26T20:32:31.941Z,16.40
2022-07-26T20:34:58.545Z,16.50
2022-07-26T20:37:25.169Z,16.40
2022-07-26T20:39:51.771Z,16.40
2022-07-26T20:42:21.617Z,16.40
2022-07-26T20:44:48.733Z,16.30
2022-07-26T20:47:15.487Z,16.20
2022-07-26T20:49:42.141Z,16.10
2022-07-26T20:52:08.741Z,16.10
2022-07-26T20:54:35.460Z,16.00
2022-07-26T20:57:04.200Z,16.00
2022-07-26T20:59:32.231Z,15.90
2022-07-26T21:01:59.029Z,15.90
2022-07-26T21:04:25.878Z,15.90
2022-07-26T21:06:52.597Z,16.00
2022-07-26T21:09:19.698Z,16.10
2022-07-26T21:11:46.724Z,16.00
2022-07-26T21:14:13.421Z,16.00
2022-07-26T21:16:40.138Z,15.90
2022-07-26T21:19:07.037Z,15.80
2022-07-26T21:21:34.626Z,15.90
2022-07-26T21:24:01.214Z,15.90
2022-07-26T21:26:27.849Z,15.80
2022-07-26T21:28:54.440Z,15.70
2022-07-26T21:31:21.208Z,15.70
2022-07-26T21:33:47.905Z,15.70
2022-07-26T21:36:14.511Z,15.70
2022-07-26T21:38:41.825Z,15.80
2022-07-26T21:41:08.455Z,15.70
2022-07-26T21:43:35.148Z,15.60
2022-07-26T21:46:02.837Z,15.50
2022-07-26T21:48:30.360Z,15.60
2022-07-26T21:50:57.001Z,15.60
2022-07-26T21:53:23.609Z,15.70
2022-07-26T21:55:50.269Z,15.70
2022-07-26T21:58:17.466Z,15.60
2022-07-26T22:00:44.175Z,15.70
2022-07-26T22:03:11.739Z,15.70
2022-07-26T22:05:38.392Z,15.80
2022-07-26T22:08:07.237Z,15.90
2022-07-26T22:10:35.194Z,15.80
2022-07-26T22:13:10.703Z,15.80
2022-07-26T22:15:37.492Z,15.80
2022-07-26T22:18:04.519Z,15.80
2022-07-26T22:20:32.760Z,15.70
2022-07-26T22:23:04.658Z,15.60
2022-07-26T22:25:32.439Z,15.50
2022-07-26T22:28:00.233Z,15.50
2022-07-26T22:30:28.438Z,15.60
2022-07-26T22:32:56.866Z,15.60
2022-07-26T22:35:25.050Z,15.60
2022-07-26T22:37:53.481Z,15.60
2022-07-26T22:40:21.940Z,15.50
2022-07-26T22:42:48.844Z,15.50
2022-07-26T22:45:16.141Z,15.50
2022-07-26T22:47:55.752Z,15.40
2022-07-26T22:50:23.579Z,15.40
2022-07-26T22:52:51.992Z,15.40
2022-07-26T22:55:20.359Z,15.40
2022-07-26T22:57:47.750Z,15.40
2022-07-26T23:00:17.689Z,15.40
2022-07-26T23:02:44.617Z,15.40
2022-07-26T23:05:11.587Z,15.30
2022-07-26T23:07:38.715Z,15.30
2022-07-26T23:10:08.926Z,15.30
2022-07-26T23:12:35.692Z,15.30
2022-07-26T23:15:02.704Z,15.30
2022-07-26T23:17:29.317Z,15.30
2022-07-26T23:19:55.917Z,15.30
2022-07-26T23:22:22.632Z,15.30
2022-07-26T23:24:49.324Z,15.30
2022-07-26T23:27:19.942Z,15.30
2022-07-26T23:29:49.041Z,15.20
2022-07-26T23:32:15.929Z,15.30
2022-07-26T23:34:43.205Z,15.30
2022-07-26T23:37:09.965Z,15.20
2022-07-26T23:39:36.907Z,15.20
2022-07-26T23:42:03.657Z,15.30
2022-07-26T23:44:30.950Z,15.30
2022-07-26T23:46:58.454Z,15.30
2022-07-26T23:49:25.375Z,15.30
2022-07-26T23:51:52.280Z,15.40
2022-07-26T23:54:18.956Z,15.30
2022-07-26T23:56:45.579Z,15.30
2022-07-26T23:59:12.947Z,15.20
